Time;durP1;ratioP1;P1;durP2;ratioP2;P2;SDS_P1;SDS_P2;PMS_P1;PMS_P2;Temp;Humidity;BMP_temperature;BMP_pressure;BME280_temperature;BME280_humidity;BME280_pressure;Samples;Min_cycle;Max_cycle;Signal;HPM_P1;HPM_P2
2022/05/06 00:02:24;;;;;;;8.45;6.93;;;;;;;;;;4961450;28;20065;-84
2022/05/06 00:04:52;;;;;;;11.70;7.57;;;;;;;;;;4961461;28;20055;-84
2022/05/06 00:07:19;;;;;;;8.50;7.60;;;;;;;;;;4960771;28;20086;-84
2022/05/06 00:09:46;;;;;;;8.70;7.30;;;;;;;;;;4956756;28;20075;-83
2022/05/06 00:12:17;;;;;;;9.70;7.65;;;;;;;;;;4957276;29;20051;-84
2022/05/06 00:14:44;;;;;;;10.30;7.65;;;;;;;;;;4955320;28;20489;-83
2022/05/06 00:17:12;;;;;;;11.18;6.70;;;;;;;;;;4955888;28;20082;-84
2022/05/06 00:19:39;;;;;;;8.70;7.25;;;;;;;;;;4955816;29;20126;-84
2022/05/06 00:22:06;;;;;;;7.90;6.05;;;;;;;;;;4956826;28;20479;-83
2022/05/06 00:24:34;;;;;;;11.30;7.20;;;;;;;;;;4955314;28;20147;-83
2022/05/06 00:27:01;;;;;;;7.72;6.93;;;;;;;;;;4956456;29;20078;-83
2022/05/06 00:29:28;;;;;;;7.30;6.57;;;;;;;;;;4955103;29;20065;-83
2022/05/06 00:31:55;;;;;;;7.55;6.32;;;;;;;;;;4956176;28;20508;-83
2022/05/06 00:34:23;;;;;;;8.13;6.72;;;;;;;;;;4955555;28;20136;-82
2022/05/06 00:36:51;;;;;;;9.07;6.20;;;;;;;;;;4956368;28;20055;-83
2022/05/06 00:39:18;;;;;;;7.85;6.88;;;;;;;;;;4956093;28;20094;-84
2022/05/06 00:41:45;;;;;;;7.90;6.93;;;;;;;;;;4957622;28;20051;-84
2022/05/06 00:44:12;;;;;;;9.98;7.00;;;;;;;;;;4958671;28;20062;-84
2022/05/06 00:46:39;;;;;;;11.63;7.32;;;;;;;;;;4956495;28;20444;-83
2022/05/06 00:49:08;;;;;;;7.55;6.20;;;;;;;;;;4955614;28;20055;-85
2022/05/06 00:51:38;;;;;;;7.30;6.50;;;;;;;;;;4955818;28;20079;-84
2022/05/06 00:54:06;;;;;;;10.25;6.35;;;;;;;;;;4955343;28;20134;-85
2022/05/06 00:56:33;;;;;;;7.43;6.28;;;;;;;;;;4956298;29;20171;-83
2022/05/06 00:59:00;;;;;;;9.63;6.95;;;;;;;;;;4955862;28;20134;-81
2022/05/06 01:01:29;;;;;;;9.02;6.95;;;;;;;;;;4955948;28;20071;-81
2022/05/06 01:03:56;;;;;;;8.27;6.95;;;;;;;;;;4956163;28;20051;-81
2022/05/06 01:06:24;;;;;;;10.18;6.20;;;;;;;;;;4956215;29;20130;-81
2022/05/06 01:08:52;;;;;;;9.48;7.20;;;;;;;;;;4956462;28;20129;-81
2022/05/06 01:11:19;;;;;;;10.32;6.88;;;;;;;;;;4957022;28;20074;-82
2022/05/06 01:13:47;;;;;;;7.63;6.32;;;;;;;;;;4958287;28;20053;-81
2022/05/06 01:16:14;;;;;;;10.68;7.53;;;;;;;;;;4958626;28;20054;-82
2022/05/06 01:18:42;;;;;;;11.80;8.65;;;;;;;;;;4958828;28;20051;-82
2022/05/06 01:21:10;;;;;;;14.85;8.10;;;;;;;;;;4959502;28;20495;-82
2022/05/06 01:23:38;;;;;;;11.52;8.15;;;;;;;;;;4960860;28;20103;-83
2022/05/06 01:26:05;;;;;;;14.82;8.70;;;;;;;;;;4958118;29;20058;-81
2022/05/06 01:28:35;;;;;;;10.25;8.23;;;;;;;;;;4956090;28;20056;-82
2022/05/06 01:31:02;;;;;;;13.18;7.68;;;;;;;;;;4955665;28;20461;-81
2022/05/06 01:33:31;;;;;;;13.02;7.88;;;;;;;;;;4955604;29;20142;-82
2022/05/06 01:36:06;;;;;;;11.55;8.00;;;;;;;;;;4955939;28;20054;-81
2022/05/06 01:38:36;;;;;;;9.90;7.78;;;;;;;;;;4955754;28;20069;-82
2022/05/06 01:41:05;;;;;;;8.05;7.20;;;;;;;;;;4956868;28;20086;-81
2022/05/06 01:43:35;;;;;;;13.02;8.38;;;;;;;;;;4955251;28;20082;-81
2022/05/06 01:46:04;;;;;;;7.38;6.78;;;;;;;;;;4954810;28;20515;-81
2022/05/06 01:48:31;;;;;;;9.52;7.43;;;;;;;;;;4954867;28;20071;-83
2022/05/06 01:50:59;;;;;;;11.30;8.43;;;;;;;;;;4954524;28;20090;-81
2022/05/06 01:53:26;;;;;;;9.50;7.97;;;;;;;;;;4958332;28;20086;-82
2022/05/06 01:55:53;;;;;;;13.07;8.25;;;;;;;;;;4956086;28;20134;-82
2022/05/06 01:58:20;;;;;;;9.88;8.40;;;;;;;;;;4957863;28;20048;-81
2022/05/06 02:00:47;;;;;;;12.30;8.52;;;;;;;;;;4956626;28;20102;-81
2022/05/06 02:06:00;;;;;;;13.63;8.43;;;;;;;;;;4959878;28;20051;-84
2022/05/06 02:08:28;;;;;;;9.18;7.97;;;;;;;;;;4960452;28;20142;-84
2022/05/06 02:10:55;;;;;;;11.55;8.30;;;;;;;;;;4960188;28;20074;-84
2022/05/06 02:13:22;;;;;;;10.40;8.38;;;;;;;;;;4962072;29;20519;-85
2022/05/06 02:15:49;;;;;;;11.35;7.60;;;;;;;;;;4959771;28;20049;-84
2022/05/06 02:18:16;;;;;;;9.20;8.20;;;;;;;;;;4960307;29;20070;-84
2022/05/06 02:20:43;;;;;;;11.43;7.75;;;;;;;;;;4960314;28;20047;-84
2022/05/06 02:23:10;;;;;;;8.75;7.85;;;;;;;;;;4960791;28;20125;-84
2022/05/06 02:25:38;;;;;;;10.98;7.88;;;;;;;;;;4960790;29;20051;-85
2022/05/06 02:28:07;;;;;;;14.75;8.50;;;;;;;;;;4961236;28;20071;-85
2022/05/06 02:33:23;;;;;;;11.48;8.25;;;;;;;;;;4961793;28;20055;-85
2022/05/06 02:35:51;;;;;;;12.32;7.95;;;;;;;;;;4960226;28;20047;-85
2022/05/06 02:38:19;;;;;;;10.32;8.10;;;;;;;;;;4960529;29;20142;-84
2022/05/06 02:40:47;;;;;;;10.38;7.85;;;;;;;;;;4961310;29;20493;-85
2022/05/06 02:43:14;;;;;;;8.25;7.45;;;;;;;;;;4960293;28;20086;-84
2022/05/06 02:45:42;;;;;;;10.30;7.50;;;;;;;;;;4960187;28;20051;-84
2022/05/06 02:48:09;;;;;;;11.52;7.63;;;;;;;;;;4960139;29;20051;-84
2022/05/06 02:50:36;;;;;;;8.57;7.70;;;;;;;;;;4960716;28;20158;-84
2022/05/06 02:53:04;;;;;;;9.07;8.13;;;;;;;;;;4959999;28;20368;-84
2022/05/06 02:55:32;;;;;;;11.35;8.00;;;;;;;;;;4960143;29;20122;-84
2022/05/06 02:57:59;;;;;;;8.45;7.65;;;;;;;;;;4957936;28;20138;-84
2022/05/06 03:00:27;;;;;;;13.73;8.70;;;;;;;;;;4957694;28;20453;-84
2022/05/06 03:02:55;;;;;;;11.32;8.00;;;;;;;;;;4957294;28;20055;-84
2022/05/06 03:05:23;;;;;;;11.60;9.18;;;;;;;;;;4958024;28;20091;-84
2022/05/06 03:07:51;;;;;;;10.90;8.20;;;;;;;;;;4956783;28;20138;-84
2022/05/06 03:10:18;;;;;;;11.18;9.48;;;;;;;;;;4960273;28;20144;-84
2022/05/06 03:12:47;;;;;;;10.02;8.43;;;;;;;;;;4962223;28;20486;-84
2022/05/06 03:15:14;;;;;;;12.93;9.23;;;;;;;;;;4960306;28;20130;-85
2022/05/06 03:17:42;;;;;;;10.70;9.07;;;;;;;;;;4960623;28;20461;-82
2022/05/06 03:20:09;;;;;;;13.75;8.90;;;;;;;;;;4962095;28;20101;-84
2022/05/06 03:22:41;;;;;;;11.70;8.63;;;;;;;;;;4960096;28;20047;-84
2022/05/06 03:25:10;;;;;;;12.80;8.57;;;;;;;;;;4959478;28;20142;-84
2022/05/06 03:30:23;;;;;;;11.57;9.00;;;;;;;;;;4960969;28;20056;-84
2022/05/06 03:32:51;;;;;;;12.02;9.25;;;;;;;;;;4960182;28;20087;-84
2022/05/06 03:35:18;;;;;;;16.05;8.90;;;;;;;;;;4959845;28;20047;-84
2022/05/06 03:37:45;;;;;;;11.18;8.80;;;;;;;;;;4959523;28;20047;-84
2022/05/06 03:40:13;;;;;;;10.75;8.88;;;;;;;;;;4960426;28;20074;-83
2022/05/06 03:42:40;;;;;;;12.77;9.32;;;;;;;;;;4961998;29;20051;-84
2022/05/06 03:45:09;;;;;;;10.68;8.35;;;;;;;;;;4960032;28;20086;-84
2022/05/06 03:47:37;;;;;;;12.50;7.97;;;;;;;;;;4958766;28;20138;-84
2022/05/06 03:52:51;;;;;;;10.88;8.85;;;;;;;;;;4959981;28;20058;-84
2022/05/06 03:55:18;;;;;;;10.45;8.57;;;;;;;;;;4958476;28;20063;-84
2022/05/06 03:57:45;;;;;;;10.45;8.80;;;;;;;;;;4959015;28;20130;-83
2022/05/06 04:00:14;;;;;;;13.77;9.43;;;;;;;;;;4957073;28;20445;-83
2022/05/06 04:02:41;;;;;;;17.73;8.70;;;;;;;;;;4958134;28;20592;-82
2022/05/06 04:05:09;;;;;;;12.38;8.68;;;;;;;;;;4956998;29;20511;-83
2022/05/06 04:07:36;;;;;;;12.95;9.32;;;;;;;;;;4957262;28;20055;-83
2022/05/06 04:10:04;;;;;;;15.23;11.18;;;;;;;;;;4956455;28;20098;-82
2022/05/06 04:12:32;;;;;;;15.15;11.20;;;;;;;;;;4956716;29;20417;-84
2022/05/06 04:15:00;;;;;;;12.82;10.32;;;;;;;;;;4956978;28;20055;-83
2022/05/06 04:17:27;;;;;;;17.15;10.98;;;;;;;;;;4956081;28;20087;-83
2022/05/06 04:25:26;;;;;;;14.02;11.95;;;;;;;;;;4955830;28;20082;-82
2022/05/06 04:27:53;;;;;;;12.63;10.25;;;;;;;;;;4955784;28;20055;-84
2022/05/06 04:30:20;;;;;;;12.82;10.52;;;;;;;;;;4957228;28;20086;-84
2022/05/06 04:32:47;;;;;;;11.57;9.40;;;;;;;;;;4956917;28;20535;-83
2022/05/06 04:35:15;;;;;;;11.88;9.75;;;;;;;;;;4957428;28;20130;-85
2022/05/06 04:37:43;;;;;;;12.95;9.98;;;;;;;;;;4957297;28;20499;-85
2022/05/06 04:40:11;;;;;;;13.98;10.32;;;;;;;;;;4957340;29;20047;-85
2022/05/06 04:42:39;;;;;;;14.05;11.50;;;;;;;;;;4957412;28;20135;-85
2022/05/06 04:45:06;;;;;;;15.20;10.88;;;;;;;;;;4957347;29;20086;-85
2022/05/06 04:47:34;;;;;;;19.20;12.40;;;;;;;;;;4958438;28;20090;-85
2022/05/06 04:50:02;;;;;;;15.27;11.20;;;;;;;;;;4957179;28;20063;-85
2022/05/06 04:52:29;;;;;;;16.63;13.00;;;;;;;;;;4957266;28;20547;-86
2022/05/06 04:54:56;;;;;;;17.45;13.07;;;;;;;;;;4956269;28;20105;-86
2022/05/06 04:57:23;;;;;;;20.08;14.77;;;;;;;;;;4956931;29;20043;-85
2022/05/06 04:59:50;;;;;;;24.15;17.13;;;;;;;;;;4956570;28;20058;-85
2022/05/06 05:02:18;;;;;;;26.33;18.58;;;;;;;;;;4957153;28;20075;-85
2022/05/06 05:04:46;;;;;;;19.10;15.93;;;;;;;;;;4957442;29;20061;-85
2022/05/06 05:07:13;;;;;;;26.85;18.00;;;;;;;;;;4957779;29;20106;-84
2022/05/06 05:09:40;;;;;;;20.48;16.35;;;;;;;;;;4958390;28;20282;-85
2022/05/06 05:12:08;;;;;;;23.08;17.10;;;;;;;;;;4960894;28;20150;-86
2022/05/06 05:14:39;;;;;;;21.40;16.70;;;;;;;;;;4956582;29;20048;-85
2022/05/06 05:17:06;;;;;;;20.45;13.60;;;;;;;;;;4956159;29;20119;-84
2022/05/06 05:19:33;;;;;;;19.27;11.38;;;;;;;;;;4956288;29;20154;-85
2022/05/06 05:22:00;;;;;;;15.35;11.85;;;;;;;;;;4957395;29;20089;-86
2022/05/06 05:24:27;;;;;;;8.07;7.28;;;;;;;;;;4959575;28;20078;-86
2022/05/06 05:26:54;;;;;;;6.00;5.22;;;;;;;;;;4957027;28;20070;-83
2022/05/06 05:29:28;;;;;;;5.50;4.97;;;;;;;;;;4955327;28;20047;-84
2022/05/06 05:31:55;;;;;;;6.75;4.60;;;;;;;;;;4955112;29;20489;-85
2022/05/06 05:34:22;;;;;;;6.78;4.15;;;;;;;;;;4954401;29;20150;-84
2022/05/06 05:36:50;;;;;;;10.70;4.18;;;;;;;;;;4954562;28;20051;-84
2022/05/06 05:39:17;;;;;;;4.97;4.07;;;;;;;;;;4955470;28;20138;-85
2022/05/06 05:41:44;;;;;;;4.22;3.60;;;;;;;;;;4957491;28;20424;-82
2022/05/06 05:49:44;;;;;;;3.60;3.25;;;;;;;;;;4959915;28;20544;-85
2022/05/06 05:52:11;;;;;;;5.68;3.50;;;;;;;;;;4958750;28;20051;-84
2022/05/06 05:54:38;;;;;;;7.10;3.55;;;;;;;;;;4958607;28;20411;-85
2022/05/06 05:57:06;;;;;;;7.88;3.95;;;;;;;;;;4958832;29;20445;-84
2022/05/06 05:59:37;;;;;;;5.60;3.30;;;;;;;;;;4958323;28;20055;-85
2022/05/06 06:02:04;;;;;;;10.65;4.60;;;;;;;;;;4959464;28;20051;-86
2022/05/06 06:04:32;;;;;;;11.80;3.90;;;;;;;;;;4958548;29;20051;-85
2022/05/06 06:06:59;;;;;;;10.07;4.22;;;;;;;;;;4958186;28;20078;-86
2022/05/06 06:09:27;;;;;;;7.05;3.70;;;;;;;;;;4958273;28;20067;-85
2022/05/06 06:11:55;;;;;;;7.38;3.85;;;;;;;;;;4957604;28;20081;-84
2022/05/06 06:14:22;;;;;;;10.32;4.30;;;;;;;;;;4958870;29;20511;-85
2022/05/06 06:16:50;;;;;;;13.45;4.55;;;;;;;;;;4957343;28;20063;-85
2022/05/06 06:19:17;;;;;;;8.13;3.92;;;;;;;;;;4958447;28;20051;-84
2022/05/06 06:21:45;;;;;;;6.13;4.18;;;;;;;;;;4957611;28;20078;-83
2022/05/06 06:24:12;;;;;;;12.07;4.82;;;;;;;;;;4957703;28;20090;-85
2022/05/06 06:26:39;;;;;;;10.65;5.10;;;;;;;;;;4957014;28;20290;-85
2022/05/06 06:29:07;;;;;;;15.63;5.38;;;;;;;;;;4957694;29;20058;-83
2022/05/06 06:31:34;;;;;;;13.77;3.85;;;;;;;;;;4956971;28;20479;-84
2022/05/06 06:34:02;;;;;;;14.43;4.78;;;;;;;;;;4956939;29;20075;-84
2022/05/06 06:36:29;;;;;;;9.38;5.25;;;;;;;;;;4956933;29;20513;-85
2022/05/06 06:38:56;;;;;;;15.85;4.88;;;;;;;;;;4957049;29;20142;-83
2022/05/06 06:41:23;;;;;;;12.07;3.95;;;;;;;;;;4956844;28;20441;-85
2022/05/06 06:43:51;;;;;;;12.82;4.05;;;;;;;;;;4956711;28;20075;-84
2022/05/06 06:46:18;;;;;;;14.13;4.93;;;;;;;;;;4956650;29;20085;-84
2022/05/06 06:48:46;;;;;;;16.90;4.90;;;;;;;;;;4956784;28;20058;-84
2022/05/06 06:51:13;;;;;;;15.30;4.50;;;;;;;;;;4956519;28;20134;-83
2022/05/06 06:53:40;;;;;;;15.30;4.55;;;;;;;;;;4956957;28;20055;-84
2022/05/06 06:56:07;;;;;;;16.40;4.60;;;;;;;;;;4956437;28;20126;-84
2022/05/06 06:58:34;;;;;;;21.67;4.70;;;;;;;;;;4956331;28;20058;-84
2022/05/06 07:01:03;;;;;;;17.73;4.72;;;;;;;;;;4960214;28;20105;-84
2022/05/06 07:03:31;;;;;;;9.35;3.72;;;;;;;;;;4960287;28;20051;-84
2022/05/06 07:14:16;;;;;;;21.13;4.75;;;;;;;;;;4959127;28;20075;-84
2022/05/06 07:16:43;;;;;;;26.20;5.03;;;;;;;;;;4957509;29;20083;-85
2022/05/06 07:19:10;;;;;;;15.57;4.10;;;;;;;;;;4957295;28;20501;-84
2022/05/06 07:21:38;;;;;;;14.60;4.13;;;;;;;;;;4957574;29;20125;-84
2022/05/06 07:24:06;;;;;;;18.00;4.65;;;;;;;;;;4957626;28;20560;-85
2022/05/06 07:26:33;;;;;;;18.13;4.30;;;;;;;;;;4958162;28;20059;-84
2022/05/06 07:29:00;;;;;;;16.35;3.75;;;;;;;;;;4957600;28;20047;-83
2022/05/06 07:31:28;;;;;;;12.23;3.58;;;;;;;;;;4955984;28;20126;-83
2022/05/06 07:33:55;;;;;;;16.88;3.92;;;;;;;;;;4956127;28;20055;-84
2022/05/06 07:36:23;;;;;;;11.10;3.55;;;;;;;;;;4957163;29;20071;-83
2022/05/06 07:38:51;;;;;;;23.23;3.97;;;;;;;;;;4957135;28;20138;-83
2022/05/06 07:41:18;;;;;;;11.38;3.28;;;;;;;;;;4955724;28;20564;-83
2022/05/06 07:43:45;;;;;;;15.10;3.40;;;;;;;;;;4956719;28;20075;-83
2022/05/06 07:46:13;;;;;;;14.35;2.90;;;;;;;;;;4955241;28;20078;-84
2022/05/06 07:48:41;;;;;;;8.82;2.78;;;;;;;;;;4955753;29;20166;-84
2022/05/06 07:51:08;;;;;;;5.97;2.95;;;;;;;;;;4956565;29;20650;-84
2022/05/06 07:53:35;;;;;;;3.65;2.40;;;;;;;;;;4955267;28;20102;-84
2022/05/06 07:56:03;;;;;;;5.25;2.92;;;;;;;;;;4957134;28;20098;-81
2022/05/06 07:58:30;;;;;;;8.80;3.00;;;;;;;;;;4955424;28;20078;-81
2022/05/06 08:00:57;;;;;;;3.53;2.20;;;;;;;;;;4960795;28;20409;-83
2022/05/06 08:06:11;;;;;;;3.53;2.42;;;;;;;;;;4964089;28;20142;-83
2022/05/06 08:08:39;;;;;;;3.88;2.15;;;;;;;;;;4961435;28;20051;-83
2022/05/06 08:11:06;;;;;;;3.33;2.15;;;;;;;;;;4962856;28;20512;-83
2022/05/06 08:13:33;;;;;;;4.80;2.47;;;;;;;;;;4955225;28;20141;-81
2022/05/06 08:16:01;;;;;;;5.15;2.20;;;;;;;;;;4961354;28;20421;-82
2022/05/06 08:18:28;;;;;;;7.25;2.55;;;;;;;;;;4960724;29;20075;-81
2022/05/06 08:20:55;;;;;;;3.97;2.30;;;;;;;;;;4960201;28;20970;-82
2022/05/06 08:23:23;;;;;;;5.43;2.00;;;;;;;;;;4960413;29;20085;-80
2022/05/06 08:25:53;;;;;;;6.57;2.28;;;;;;;;;;4960245;29;20568;-80
2022/05/06 08:28:21;;;;;;;5.18;2.20;;;;;;;;;;4959923;28;20063;-81
2022/05/06 08:30:49;;;;;;;7.15;2.30;;;;;;;;;;4960811;28;20083;-82
2022/05/06 08:33:17;;;;;;;4.53;1.83;;;;;;;;;;4959864;28;20087;-81
2022/05/06 08:35:45;;;;;;;2.78;1.73;;;;;;;;;;4959915;28;20078;-82
2022/05/06 08:38:13;;;;;;;4.00;1.60;;;;;;;;;;4960687;28;20051;-80
2022/05/06 08:40:40;;;;;;;5.30;1.80;;;;;;;;;;4960288;28;20417;-81
2022/05/06 08:43:07;;;;;;;4.10;1.63;;;;;;;;;;4959893;28;20067;-81
2022/05/06 08:51:09;;;;;;;5.25;1.67;;;;;;;;;;4960475;28;20058;-82
2022/05/06 08:53:39;;;;;;;1.98;1.77;;;;;;;;;;4960705;28;20055;-81
2022/05/06 08:56:07;;;;;;;4.93;1.80;;;;;;;;;;4959839;29;20120;-82
2022/05/06 08:58:37;;;;;;;6.40;1.83;;;;;;;;;;4960123;28;20050;-81
2022/05/06 09:01:09;;;;;;;6.18;1.75;;;;;;;;;;4960203;28;20190;-81
2022/05/06 09:03:42;;;;;;;8.18;1.70;;;;;;;;;;4960193;28;20504;-82
2022/05/06 09:06:22;;;;;;;5.22;1.90;;;;;;;;;;4959899;29;20142;-82
2022/05/06 09:08:51;;;;;;;5.20;1.70;;;;;;;;;;4959922;29;20074;-80
2022/05/06 09:12:40;;;;;;;4.15;1.38;;;;;;;;;;4960777;29;20051;-81
2022/05/06 09:14:06;;;;;;;11.40;1.50;;;;;;;;;;4961834;28;20082;-82
2022/05/06 09:16:39;;;;;;;2.80;1.15;;;;;;;;;;4959157;29;20051;-81
2022/05/06 09:19:22;;;;;;;5.47;1.20;;;;;;;;;;4961514;28;20055;-80
2022/05/06 09:22:18;;;;;;;5.45;1.45;;;;;;;;;;4960631;29;20087;-80
2022/05/06 09:24:50;;;;;;;6.63;1.30;;;;;;;;;;4952469;28;20075;-82
2022/05/06 09:27:18;;;;;;;4.25;1.20;;;;;;;;;;4960974;29;20110;-82
2022/05/06 09:29:46;;;;;;;2.05;0.88;;;;;;;;;;4960349;28;20075;-81
2022/05/06 09:32:26;;;;;;;1.25;0.77;;;;;;;;;;4958631;28;20051;-84
2022/05/06 09:34:57;;;;;;;9.95;1.25;;;;;;;;;;4954951;28;20146;-80
2022/05/06 09:37:35;;;;;;;4.28;1.02;;;;;;;;;;4958196;29;20047;-81
2022/05/06 09:40:05;;;;;;;2.22;1.00;;;;;;;;;;4960521;28;20051;-81
2022/05/06 09:42:33;;;;;;;1.38;1.20;;;;;;;;;;4960373;28;20051;-80
2022/05/06 09:45:01;;;;;;;4.65;1.73;;;;;;;;;;4960802;28;20090;-81
2022/05/06 09:47:28;;;;;;;7.57;1.30;;;;;;;;;;4960778;28;20048;-82
2022/05/06 09:49:55;;;;;;;9.93;1.63;;;;;;;;;;4960175;28;20121;-81
2022/05/06 09:52:22;;;;;;;4.18;1.25;;;;;;;;;;4954089;29;20127;-79
2022/05/06 09:54:50;;;;;;;7.38;1.40;;;;;;;;;;4953035;28;20113;-80
2022/05/06 09:57:18;;;;;;;4.75;1.30;;;;;;;;;;4958067;28;20087;-81
2022/05/06 09:59:46;;;;;;;4.90;1.30;;;;;;;;;;4960992;29;20051;-81
2022/05/06 10:02:14;;;;;;;4.13;1.33;;;;;;;;;;4960709;29;20074;-80
2022/05/06 10:04:43;;;;;;;4.53;1.70;;;;;;;;;;4960492;29;20088;-79
2022/05/06 10:07:12;;;;;;;2.95;1.10;;;;;;;;;;4960997;28;20154;-81
2022/05/06 10:09:58;;;;;;;7.47;1.58;;;;;;;;;;4960215;29;20496;-79
2022/05/06 10:12:28;;;;;;;2.15;1.35;;;;;;;;;;4961205;29;20091;-81
2022/05/06 10:14:55;;;;;;;2.80;1.55;;;;;;;;;;4959579;28;20059;-81
2022/05/06 10:17:41;;;;;;;3.85;1.70;;;;;;;;;;4960448;28;20062;-80
2022/05/06 10:20:09;;;;;;;2.08;1.38;;;;;;;;;;4959747;28;20109;-80
2022/05/06 10:22:59;;;;;;;6.45;1.55;;;;;;;;;;4961138;28;20083;-81
2022/05/06 10:25:42;;;;;;;8.63;1.83;;;;;;;;;;4955885;28;20119;-79
2022/05/06 10:34:10;;;;;;;3.72;1.40;;;;;;;;;;4964091;28;20047;-79
2022/05/06 10:36:45;;;;;;;2.45;1.80;;;;;;;;;;4962840;29;20147;-79
2022/05/06 10:39:18;;;;;;;2.75;1.30;;;;;;;;;;4964996;28;20086;-80
2022/05/06 10:42:04;;;;;;;3.55;0.90;;;;;;;;;;4962991;28;20047;-80
2022/05/06 10:44:38;;;;;;;6.28;1.30;;;;;;;;;;4962873;28;20047;-79
2022/05/06 10:47:14;;;;;;;6.90;1.20;;;;;;;;;;4962565;28;20513;-81
2022/05/06 10:49:46;;;;;;;2.58;0.93;;;;;;;;;;4958381;28;20552;-79
2022/05/06 10:52:24;;;;;;;3.40;1.33;;;;;;;;;;4957466;29;20071;-79
2022/05/06 10:54:55;;;;;;;2.42;1.33;;;;;;;;;;4961845;28;20109;-82
2022/05/06 10:57:23;;;;;;;2.10;1.08;;;;;;;;;;4963926;28;20057;-79
2022/05/06 11:00:01;;;;;;;2.67;1.30;;;;;;;;;;4963328;28;20062;-81
2022/05/06 11:02:29;;;;;;;3.60;1.48;;;;;;;;;;4962887;28;20055;-80
2022/05/06 11:04:57;;;;;;;1.58;1.10;;;;;;;;;;4963107;28;20400;-79
2022/05/06 11:07:26;;;;;;;6.80;1.30;;;;;;;;;;4961520;28;20055;-79
2022/05/06 11:09:53;;;;;;;1.83;1.00;;;;;;;;;;4963725;28;20071;-81
2022/05/06 11:12:29;;;;;;;2.95;0.93;;;;;;;;;;4962408;28;20055;-80
2022/05/06 11:14:57;;;;;;;3.65;0.77;;;;;;;;;;4962515;29;20142;-81
2022/05/06 11:17:25;;;;;;;2.28;1.00;;;;;;;;;;4962260;28;20072;-81
2022/05/06 11:19:52;;;;;;;2.75;0.80;;;;;;;;;;4962323;28;20059;-81
2022/05/06 11:22:26;;;;;;;1.25;0.93;;;;;;;;;;4961779;28;20098;-81
2022/05/06 11:24:56;;;;;;;2.08;0.90;;;;;;;;;;4962407;28;20085;-81
2022/05/06 11:27:24;;;;;;;0.80;0.77;;;;;;;;;;4963302;28;20055;-81
2022/05/06 11:29:57;;;;;;;1.90;0.95;;;;;;;;;;4959623;29;20054;-81
2022/05/06 11:32:25;;;;;;;6.75;0.95;;;;;;;;;;4956547;28;20118;-81
2022/05/06 11:35:00;;;;;;;1.27;0.90;;;;;;;;;;4956070;28;20138;-80
2022/05/06 11:37:29;;;;;;;3.40;1.10;;;;;;;;;;4975493;23;20054;-81
2022/05/06 11:40:18;;;;;;;3.45;0.88;;;;;;;;;;4994625;28;20089;-79
2022/05/06 11:42:43;;;;;;;1.20;1.00;;;;;;;;;;4995517;28;20054;-79
2022/05/06 11:48:20;;;;;;;3.55;0.90;;;;;;;;;;4995427;28;20141;-79
2022/05/06 11:50:49;;;;;;;3.30;1.00;;;;;;;;;;4979977;28;20534;-78
2022/05/06 11:53:19;;;;;;;2.17;0.60;;;;;;;;;;4979163;28;20142;-80
2022/05/06 11:55:46;;;;;;;4.47;0.98;;;;;;;;;;4976521;28;20104;-80
2022/05/06 11:58:15;;;;;;;1.55;0.90;;;;;;;;;;4976259;28;20500;-78
2022/05/06 12:00:42;;;;;;;4.20;0.90;;;;;;;;;;4975127;28;20085;-79
2022/05/06 12:03:12;;;;;;;5.75;1.15;;;;;;;;;;4975922;28;20055;-82
2022/05/06 12:05:39;;;;;;;2.35;1.10;;;;;;;;;;4975095;28;20124;-83
2022/05/06 12:08:10;;;;;;;3.17;0.90;;;;;;;;;;4974820;28;20081;-81
2022/05/06 12:10:38;;;;;;;3.05;1.00;;;;;;;;;;4974939;28;20078;-82
2022/05/06 12:13:07;;;;;;;1.88;0.88;;;;;;;;;;4975052;28;20419;-82
2022/05/06 12:15:37;;;;;;;3.03;0.90;;;;;;;;;;4975115;28;20137;-83
2022/05/06 12:18:09;;;;;;;1.83;0.90;;;;;;;;;;4974979;28;20047;-83
2022/05/06 12:20:37;;;;;;;0.77;0.77;;;;;;;;;;4974674;28;20050;-83
2022/05/06 12:23:05;;;;;;;3.90;1.10;;;;;;;;;;4974405;28;20082;-80
2022/05/06 12:25:35;;;;;;;4.07;0.93;;;;;;;;;;4975704;28;20133;-82
2022/05/06 12:28:19;;;;;;;5.95;1.00;;;;;;;;;;4974404;28;20499;-81
2022/05/06 12:30:46;;;;;;;1.63;0.70;;;;;;;;;;4974190;28;20055;-82
2022/05/06 12:33:17;;;;;;;2.17;0.80;;;;;;;;;;4981313;28;20216;-83
2022/05/06 12:35:58;;;;;;;8.77;0.90;;;;;;;;;;4985523;28;20461;-82
2022/05/06 12:38:26;;;;;;;0.82;0.75;;;;;;;;;;4994864;28;20524;-82
2022/05/06 12:40:54;;;;;;;4.70;0.70;;;;;;;;;;4995178;28;20081;-82
2022/05/06 12:43:27;;;;;;;2.17;0.73;;;;;;;;;;4993746;28;20054;-82
2022/05/06 12:46:00;;;;;;;3.72;0.70;;;;;;;;;;4994233;28;20042;-82
2022/05/06 12:51:13;;;;;;;2.05;0.82;;;;;;;;;;4994702;28;20129;-82
2022/05/06 12:53:40;;;;;;;4.57;0.70;;;;;;;;;;4995050;28;20046;-83
2022/05/06 12:56:16;;;;;;;3.55;0.57;;;;;;;;;;4993614;28;20559;-83
2022/05/06 12:58:44;;;;;;;2.25;0.93;;;;;;;;;;4994668;28;20093;-82
2022/05/06 13:01:13;;;;;;;1.88;0.70;;;;;;;;;;4994905;28;20054;-82
2022/05/06 13:03:42;;;;;;;4.13;1.00;;;;;;;;;;4994641;28;20582;-82
2022/05/06 13:06:10;;;;;;;2.45;1.20;;;;;;;;;;4995251;28;20451;-82
2022/05/06 13:08:37;;;;;;;3.17;0.95;;;;;;;;;;4996055;28;20112;-82
2022/05/06 13:11:04;;;;;;;9.82;1.10;;;;;;;;;;4993766;28;20081;-83
2022/05/06 13:13:31;;;;;;;2.55;1.00;;;;;;;;;;4993860;28;20133;-82
2022/05/06 13:15:59;;;;;;;1.90;0.93;;;;;;;;;;4993784;28;20054;-82
2022/05/06 13:18:26;;;;;;;2.03;0.90;;;;;;;;;;4993438;28;20053;-82
2022/05/06 13:20:54;;;;;;;2.13;1.00;;;;;;;;;;4995015;28;20077;-83
2022/05/06 13:23:21;;;;;;;4.88;0.90;;;;;;;;;;4990816;28;20611;-82
2022/05/06 13:25:51;;;;;;;3.00;0.98;;;;;;;;;;4973845;28;20404;-82
2022/05/06 13:28:18;;;;;;;3.33;0.95;;;;;;;;;;4974063;28;20576;-83
2022/05/06 13:30:47;;;;;;;1.58;0.98;;;;;;;;;;4974743;28;20145;-82
2022/05/06 13:33:14;;;;;;;3.08;1.00;;;;;;;;;;4974295;28;20051;-81
2022/05/06 13:35:43;;;;;;;3.35;0.93;;;;;;;;;;4973319;28;20093;-82
2022/05/06 13:38:10;;;;;;;1.75;1.00;;;;;;;;;;4973597;28;20105;-82
2022/05/06 13:40:38;;;;;;;5.15;1.13;;;;;;;;;;4973698;28;20085;-81
2022/05/06 13:43:05;;;;;;;2.50;1.10;;;;;;;;;;4973710;28;20085;-81
2022/05/06 13:45:32;;;;;;;4.93;1.08;;;;;;;;;;4973991;28;20053;-82
2022/05/06 13:47:59;;;;;;;5.43;1.42;;;;;;;;;;4973788;28;20081;-82
2022/05/06 13:50:27;;;;;;;2.83;0.90;;;;;;;;;;4973553;28;20089;-82
2022/05/06 13:52:54;;;;;;;3.13;1.20;;;;;;;;;;4973843;28;20055;-82
2022/05/06 13:55:21;;;;;;;7.82;0.95;;;;;;;;;;4974925;28;20419;-80
2022/05/06 14:00:35;;;;;;;1.40;0.90;;;;;;;;;;4975179;28;20074;-84
2022/05/06 14:03:03;;;;;;;2.75;1.10;;;;;;;;;;4978485;28;20133;-81
2022/05/06 14:05:31;;;;;;;10.00;1.38;;;;;;;;;;4978991;28;20074;-83
2022/05/06 14:08:00;;;;;;;6.05;1.48;;;;;;;;;;4977349;28;20055;-81
2022/05/06 14:10:28;;;;;;;4.25;1.33;;;;;;;;;;4977169;28;20496;-82
2022/05/06 14:12:55;;;;;;;4.97;1.15;;;;;;;;;;4978533;28;20141;-82
2022/05/06 14:15:22;;;;;;;1.98;1.00;;;;;;;;;;4977245;28;20122;-81
2022/05/06 14:17:50;;;;;;;8.95;1.30;;;;;;;;;;4977158;28;20138;-82
2022/05/06 14:20:17;;;;;;;4.88;1.10;;;;;;;;;;4977327;28;20081;-82
2022/05/06 14:22:44;;;;;;;4.13;1.15;;;;;;;;;;4979337;28;20476;-81
2022/05/06 14:25:11;;;;;;;3.10;0.90;;;;;;;;;;4978780;28;20050;-83
2022/05/06 14:27:44;;;;;;;1.48;1.00;;;;;;;;;;4977352;28;20471;-82
2022/05/06 14:30:12;;;;;;;2.25;1.02;;;;;;;;;;4977737;28;20114;-82
2022/05/06 14:32:39;;;;;;;2.80;1.08;;;;;;;;;;4977224;28;20114;-83
2022/05/06 14:35:21;;;;;;;3.00;1.40;;;;;;;;;;4977106;28;20101;-82
2022/05/06 14:37:51;;;;;;;1.92;1.05;;;;;;;;;;4977352;28;20179;-82
2022/05/06 14:40:19;;;;;;;1.85;1.20;;;;;;;;;;4978584;28;20074;-84
2022/05/06 14:42:47;;;;;;;2.47;1.20;;;;;;;;;;4977820;28;20051;-84
2022/05/06 14:45:14;;;;;;;7.10;1.80;;;;;;;;;;4979550;28;20503;-85
2022/05/06 14:47:42;;;;;;;3.90;1.50;;;;;;;;;;4977669;28;20065;-84
2022/05/06 14:50:10;;;;;;;4.47;1.10;;;;;;;;;;4979750;28;20133;-84
2022/05/06 14:52:37;;;;;;;2.72;1.00;;;;;;;;;;4978769;28;20141;-84
2022/05/06 14:55:04;;;;;;;2.75;0.93;;;;;;;;;;4978267;28;20496;-84
2022/05/06 14:57:32;;;;;;;3.42;1.40;;;;;;;;;;4979638;28;20085;-84
2022/05/06 14:59:59;;;;;;;3.60;1.42;;;;;;;;;;4977831;28;20564;-84
2022/05/06 15:02:32;;;;;;;5.50;1.30;;;;;;;;;;4978053;28;20415;-84
2022/05/06 15:04:59;;;;;;;1.38;1.27;;;;;;;;;;4976496;28;20101;-84
2022/05/06 15:07:27;;;;;;;3.85;1.10;;;;;;;;;;4976823;28;20047;-84
2022/05/06 15:09:54;;;;;;;1.80;1.25;;;;;;;;;;4977493;28;20065;-83
2022/05/06 15:12:23;;;;;;;4.18;1.10;;;;;;;;;;4976863;28;20094;-83
2022/05/06 15:14:54;;;;;;;1.58;1.15;;;;;;;;;;4976537;28;20620;-84
2022/05/06 15:17:22;;;;;;;2.70;1.15;;;;;;;;;;4976632;28;20046;-84
2022/05/06 15:19:49;;;;;;;5.03;1.50;;;;;;;;;;4976487;28;20046;-84
2022/05/06 15:22:17;;;;;;;2.03;1.20;;;;;;;;;;4976367;28;20450;-84
2022/05/06 15:24:46;;;;;;;1.95;0.98;;;;;;;;;;4976149;28;20146;-84
2022/05/06 15:27:15;;;;;;;2.05;1.20;;;;;;;;;;4976158;28;20051;-83
2022/05/06 15:29:42;;;;;;;4.93;1.27;;;;;;;;;;4976531;28;20058;-84
2022/05/06 15:32:10;;;;;;;4.63;1.38;;;;;;;;;;4976031;28;20074;-83
2022/05/06 15:34:37;;;;;;;5.82;1.05;;;;;;;;;;4975775;28;20105;-84
2022/05/06 15:37:05;;;;;;;3.10;1.02;;;;;;;;;;4975972;28;20054;-83
2022/05/06 15:39:32;;;;;;;2.47;1.00;;;;;;;;;;4977200;28;20082;-83
2022/05/06 15:41:59;;;;;;;1.73;0.90;;;;;;;;;;4978698;28;20459;-84